Terminal Aerodrome Forecast
Issued by NWS

Home | Current Version | Previous Version | Text Only | Print | Product List | Glossary On
Versions: 1 2 3 4 5 6 7 8 9 10 11 12 13 14 15
546
FTUS46 KSTO 211120
TAFSAC
TAF
KSAC 211120Z 2112/2212 33004KT 4SM BR OVC005
      TEMPO 2113/2117 1SM BR OVC003
     FM211900 35003KT P6SM BKN100
     FM220400 VRB02KT 4SM BR BKN250
     FM220800 VRB02KT 2SM BR OVC015=

USA.gov is the U.S. government's official web portal to all federal, state and local government web resources and services.